Time;durP1;ratioP1;P1;durP2;ratioP2;P2;SDS_P1;SDS_P2;PMS_P1;PMS_P2;Temp;Humidity;BMP_temperature;BMP_pressure;BME280_temperature;BME280_humidity;BME280_pressure;Samples;Min_cycle;Max_cycle;Signal;HPM_P1;HPM_P2
2022/03/23 00:01:29;;;;;;;76.47;48.80;;;14.90;79.30;;;;;;5088208;28;20949;-69
2022/03/23 00:03:55;;;;;;;72.18;48.28;;;14.90;79.70;;;;;;5072791;28;20770;-69
2022/03/23 00:06:21;;;;;;;77.18;49.03;;;14.80;79.50;;;;;;5085188;28;20770;-68
2022/03/23 00:08:46;;;;;;;76.30;49.50;;;14.80;79.70;;;;;;5070684;28;20500;-69
2022/03/23 00:11:12;;;;;;;77.20;49.58;;;14.80;79.80;;;;;;5071227;28;20754;-68
2022/03/23 00:13:38;;;;;;;71.07;48.08;;;14.80;80.00;;;;;;5089088;28;20410;-68
2022/03/23 00:16:04;;;;;;;77.80;49.10;;;14.70;79.80;;;;;;5088522;28;20426;-69
2022/03/23 00:18:30;;;;;;;75.35;50.05;;;14.70;80.40;;;;;;5070609;28;20398;-70
2022/03/23 00:20:56;;;;;;;74.83;50.07;;;14.70;80.70;;;;;;5086973;28;20406;-70
2022/03/23 00:23:22;;;;;;;77.95;48.88;;;14.70;80.80;;;;;;5089054;28;20959;-71
2022/03/23 00:25:48;;;;;;;75.47;49.67;;;14.70;81.00;;;;;;5088920;28;21785;-70
2022/03/23 00:28:13;;;;;;;80.68;50.13;;;14.60;81.00;;;;;;5088045;28;20445;-70
2022/03/23 00:30:39;;;;;;;77.75;51.13;;;14.60;81.80;;;;;;5070577;28;20491;-70
2022/03/23 00:33:05;;;;;;;76.53;50.83;;;14.60;81.00;;;;;;5087891;28;20425;-70
2022/03/23 00:35:32;;;;;;;76.32;49.65;;;14.50;80.80;;;;;;5087881;28;20889;-68
2022/03/23 00:38:01;;;;;;;76.68;49.53;;;14.50;80.90;;;;;;5070225;28;20428;-69
2022/03/23 00:40:30;;;;;;;75.22;49.72;;;14.40;81.30;;;;;;5089413;28;20522;-70
2022/03/23 00:43:01;;;;;;;77.55;49.88;;;14.40;81.40;;;;;;5065809;28;20902;-69
2022/03/23 00:45:29;;;;;;;76.45;51.35;;;14.40;81.90;;;;;;5089696;28;20460;-70
2022/03/23 00:47:56;;;;;;;78.70;50.63;;;14.30;81.90;;;;;;5085264;28;20459;-71
2022/03/23 00:50:24;;;;;;;78.78;51.92;;;14.30;82.10;;;;;;5068976;28;20414;-70
2022/03/23 00:52:50;;;;;;;80.80;52.67;;;14.20;82.40;;;;;;5086267;28;20401;-69
2022/03/23 00:55:16;;;;;;;84.10;53.80;;;14.20;82.80;;;;;;5070085;28;20921;-71
2022/03/23 00:57:42;;;;;;;81.68;51.88;;;14.10;83.20;;;;;;5067575;28;20493;-68
2022/03/23 01:00:12;;;;;;;79.97;51.83;;;14.10;83.90;;;;;;5070548;28;20440;-70
2022/03/23 01:02:42;;;;;;;79.00;51.13;;;14.10;84.00;;;;;;5086327;28;20413;-70
2022/03/23 01:05:09;;;;;;;80.27;51.73;;;14.10;84.20;;;;;;5068230;28;20422;-71
2022/03/23 01:07:36;;;;;;;80.23;52.33;;;14.10;84.30;;;;;;5084048;28;20900;-70
2022/03/23 01:10:04;;;;;;;81.32;52.78;;;14.00;84.20;;;;;;5084622;28;20402;-70
2022/03/23 01:12:30;;;;;;;83.32;52.78;;;14.00;84.80;;;;;;5068841;28;20396;-71
2022/03/23 01:14:57;;;;;;;80.70;53.13;;;14.00;84.90;;;;;;5089346;28;20429;-72
2022/03/23 01:17:23;;;;;;;79.85;52.47;;;13.90;84.70;;;;;;5070765;28;20412;-69
2022/03/23 01:19:49;;;;;;;83.95;53.67;;;13.90;84.90;;;;;;5087180;28;20442;-73
2022/03/23 01:22:16;;;;;;;82.37;53.10;;;13.90;85.10;;;;;;5068984;28;20454;-75
2022/03/23 01:24:45;;;;;;;81.03;53.97;;;13.80;85.50;;;;;;5087120;28;20470;-71
2022/03/23 01:27:10;;;;;;;78.53;52.00;;;13.80;85.60;;;;;;5056359;28;20406;-71
2022/03/23 01:29:36;;;;;;;86.32;54.45;;;13.80;85.60;;;;;;5085294;28;20421;-69
2022/03/23 01:32:03;;;;;;;80.03;52.73;;;13.80;85.70;;;;;;5068708;28;20404;-67
2022/03/23 01:34:28;;;;;;;80.60;53.40;;;13.80;86.00;;;;;;5067412;28;20414;-66
2022/03/23 01:36:54;;;;;;;81.38;53.25;;;13.70;85.90;;;;;;5086465;28;20965;-67
2022/03/23 01:39:20;;;;;;;83.87;54.57;;;13.70;86.20;;;;;;5086736;28;20897;-67
2022/03/23 01:41:45;;;;;;;78.43;52.80;;;13.70;86.50;;;;;;5087134;28;20898;-70
2022/03/23 01:44:17;;;;;;;83.53;53.55;;;13.60;87.30;;;;;;5069159;28;20402;-67
2022/03/23 01:46:59;;;;;;;82.13;54.90;;;13.60;86.60;;;;;;5085872;28;20418;-70
2022/03/23 01:49:25;;;;;;;80.75;53.00;;;13.60;86.90;;;;;;5066460;28;20505;-69
2022/03/23 01:51:51;;;;;;;79.67;53.27;;;13.60;87.20;;;;;;5070167;28;20494;-69
2022/03/23 01:54:16;;;;;;;83.82;54.75;;;13.60;87.50;;;;;;5051770;28;20488;-68
2022/03/23 01:56:43;;;;;;;84.13;54.60;;;13.50;87.70;;;;;;5068071;28;20434;-69
2022/03/23 01:59:10;;;;;;;80.50;53.85;;;13.50;87.90;;;;;;5051608;28;20550;-68
2022/03/23 02:01:37;;;;;;;80.57;53.17;;;13.50;87.90;;;;;;5067326;28;20768;-68
2022/03/23 02:04:03;;;;;;;84.72;54.50;;;13.50;88.20;;;;;;5067032;28;20402;-67
2022/03/23 02:06:29;;;;;;;78.93;54.23;;;13.40;88.20;;;;;;5088289;28;20448;-67
2022/03/23 02:08:55;;;;;;;85.88;54.53;;;13.40;88.40;;;;;;5068476;28;20436;-70
2022/03/23 02:11:21;;;;;;;86.85;54.88;;;13.40;88.20;;;;;;5069386;28;20456;-70
2022/03/23 02:13:48;;;;;;;87.40;55.67;;;13.30;88.20;;;;;;5065717;28;20918;-70
2022/03/23 02:16:14;;;;;;;84.53;54.67;;;13.30;88.60;;;;;;5067395;28;20425;-70
2022/03/23 02:18:40;;;;;;;88.23;55.10;;;13.30;88.50;;;;;;5066702;28;20402;-69
2022/03/23 02:21:05;;;;;;;87.85;55.50;;;13.20;88.90;;;;;;5051286;28;20410;-72
2022/03/23 02:23:34;;;;;;;85.70;55.08;;;13.20;89.10;;;;;;5067509;28;20457;-72
2022/03/23 02:26:01;;;;;;;84.80;54.60;;;13.20;89.10;;;;;;5066829;28;20440;-70
2022/03/23 02:28:28;;;;;;;83.68;55.03;;;13.10;89.20;;;;;;5085300;28;20408;-69
2022/03/23 02:30:54;;;;;;;85.17;55.00;;;13.10;89.30;;;;;;5085956;28;20443;-72
2022/03/23 02:33:23;;;;;;;84.57;53.97;;;13.10;89.10;;;;;;5067014;28;20413;-69
2022/03/23 02:35:48;;;;;;;85.90;54.88;;;13.10;89.20;;;;;;5086328;28;20890;-68
2022/03/23 02:38:17;;;;;;;82.50;53.77;;;13.00;89.10;;;;;;5080541;28;20393;-68
2022/03/23 02:40:47;;;;;;;86.50;54.63;;;13.00;89.50;;;;;;5069716;28;20406;-68
2022/03/23 02:43:13;;;;;;;83.97;53.55;;;13.00;89.90;;;;;;5083936;28;20417;-71
2022/03/23 02:45:39;;;;;;;85.40;54.05;;;13.00;89.70;;;;;;5066296;28;20898;-70
2022/03/23 02:48:06;;;;;;;85.35;55.08;;;12.90;89.70;;;;;;5067186;28;20414;-70
2022/03/23 02:50:33;;;;;;;87.45;55.58;;;12.90;89.80;;;;;;5087762;28;20402;-69
2022/03/23 03:01:54;;;;;;;88.63;54.97;;;12.80;90.10;;;;;;5071229;28;20414;-70
2022/03/23 03:04:23;;;;;;;89.37;54.57;;;12.70;90.20;;;;;;5086666;28;20412;-67
2022/03/23 03:06:50;;;;;;;85.78;54.80;;;12.60;90.20;;;;;;5090452;28;20433;-67
2022/03/23 03:09:15;;;;;;;86.80;54.28;;;12.60;90.40;;;;;;5072515;28;20754;-69
2022/03/23 03:11:45;;;;;;;86.18;54.22;;;12.60;90.70;;;;;;5089276;28;20405;-68
2022/03/23 03:14:11;;;;;;;85.13;54.05;;;12.60;90.50;;;;;;5086140;28;20456;-70
2022/03/23 03:16:38;;;;;;;77.85;53.35;;;12.60;90.60;;;;;;5087168;28;20790;-71
2022/03/23 03:19:12;;;;;;;84.20;52.80;;;12.60;90.70;;;;;;5089115;28;20420;-64
2022/03/23 03:21:38;;;;;;;84.05;52.47;;;12.60;90.80;;;;;;5089146;28;20424;-70
2022/03/23 03:24:05;;;;;;;83.28;54.17;;;12.60;90.70;;;;;;5071963;28;20938;-68
2022/03/23 03:26:33;;;;;;;78.18;52.97;;;12.50;90.70;;;;;;5071537;28;20489;-72
2022/03/23 03:28:59;;;;;;;79.15;52.78;;;12.50;90.70;;;;;;5072463;28;20762;-67
2022/03/23 03:31:24;;;;;;;80.50;52.63;;;12.50;90.80;;;;;;5088913;28;20421;-69
2022/03/23 03:33:50;;;;;;;82.15;52.78;;;12.50;90.70;;;;;;5088153;28;20400;-67
2022/03/23 03:36:16;;;;;;;84.43;53.90;;;12.40;90.70;;;;;;5072116;28;20408;-68
2022/03/23 03:38:43;;;;;;;83.80;54.30;;;12.40;90.80;;;;;;5087567;28;20496;-69
2022/03/23 03:41:10;;;;;;;81.00;53.17;;;12.40;90.90;;;;;;5090987;28;20413;-69
2022/03/23 03:43:35;;;;;;;82.38;53.03;;;12.30;90.90;;;;;;5069748;28;20424;-69
2022/03/23 03:46:06;;;;;;;79.47;51.97;;;12.30;91.00;;;;;;5090206;28;20410;-68
2022/03/23 03:48:32;;;;;;;86.00;53.58;;;12.30;91.10;;;;;;5086216;28;20773;-69
2022/03/23 03:50:59;;;;;;;82.23;53.77;;;12.30;91.50;;;;;;5091045;28;20440;-69
2022/03/23 03:53:25;;;;;;;82.35;53.72;;;12.30;91.20;;;;;;5089030;28;20441;-69
2022/03/23 03:55:50;;;;;;;84.28;53.30;;;12.30;91.20;;;;;;5089315;28;20460;-70
2022/03/23 03:58:17;;;;;;;81.25;52.10;;;12.20;91.30;;;;;;5071477;28;20418;-70
2022/03/23 04:00:44;;;;;;;79.50;53.00;;;12.20;91.20;;;;;;5072137;28;20437;-70
2022/03/23 04:03:10;;;;;;;81.50;52.38;;;12.20;91.20;;;;;;5085779;28;20413;-71
2022/03/23 04:05:35;;;;;;;78.53;52.17;;;12.20;91.30;;;;;;5071651;28;20413;-71
2022/03/23 04:08:02;;;;;;;82.20;52.88;;;12.10;91.40;;;;;;5088229;28;20509;-68
2022/03/23 04:10:28;;;;;;;81.82;51.90;;;12.10;91.60;;;;;;5091031;28;20850;-71
2022/03/23 04:12:54;;;;;;;77.80;51.65;;;12.10;91.70;;;;;;5086463;28;20418;-68
2022/03/23 04:15:20;;;;;;;80.90;52.17;;;12.10;91.60;;;;;;5089487;28;20885;-67
2022/03/23 04:17:47;;;;;;;80.32;52.35;;;12.10;91.70;;;;;;5069011;28;20407;-69
2022/03/23 04:20:13;;;;;;;78.07;51.67;;;12.00;91.50;;;;;;5071170;28;20888;-68
2022/03/23 04:22:39;;;;;;;79.93;52.75;;;12.00;91.50;;;;;;5087530;28;20394;-67
2022/03/23 04:25:12;;;;;;;77.93;52.67;;;11.90;91.40;;;;;;5088707;28;20410;-68
2022/03/23 04:27:55;;;;;;;80.63;51.65;;;11.90;91.50;;;;;;5067135;28;20413;-67
2022/03/23 04:30:27;;;;;;;80.18;52.45;;;11.90;91.70;;;;;;5086742;28;20405;-69
2022/03/23 04:32:52;;;;;;;81.67;52.53;;;11.90;91.70;;;;;;5070995;28;20908;-68
2022/03/23 04:35:20;;;;;;;85.78;52.28;;;11.80;91.70;;;;;;5088288;28;20466;-67
2022/03/23 04:37:47;;;;;;;87.03;53.47;;;11.80;91.40;;;;;;5069546;28;20496;-69
2022/03/23 04:40:14;;;;;;;79.72;52.15;;;11.80;91.80;;;;;;5086239;28;20475;-66
2022/03/23 04:42:40;;;;;;;82.00;52.08;;;11.70;91.80;;;;;;5087600;28;20955;-68
2022/03/23 04:45:08;;;;;;;83.53;52.13;;;11.70;91.60;;;;;;5085865;28;21269;-68
2022/03/23 04:47:34;;;;;;;77.18;51.03;;;11.70;91.60;;;;;;5069977;28;20424;-69
2022/03/23 04:50:05;;;;;;;80.10;52.20;;;11.70;91.30;;;;;;5085640;28;20410;-67
2022/03/23 04:52:31;;;;;;;77.63;51.10;;;11.60;91.30;;;;;;5086828;28;21025;-67
2022/03/23 04:54:57;;;;;;;74.53;50.85;;;11.60;91.40;;;;;;5087617;28;20462;-66
2022/03/23 04:57:23;;;;;;;76.32;51.90;;;11.60;91.50;;;;;;5088163;28;20485;-68
2022/03/23 04:59:50;;;;;;;80.63;51.72;;;11.50;91.60;;;;;;5066823;28;20456;-69
2022/03/23 05:02:16;;;;;;;84.40;52.17;;;11.50;91.50;;;;;;5071624;28;20429;-69
2022/03/23 05:04:41;;;;;;;79.23;52.00;;;11.50;91.60;;;;;;5087033;28;20448;-71
2022/03/23 05:07:07;;;;;;;78.80;51.97;;;11.50;91.70;;;;;;5070368;28;20409;-69
2022/03/23 05:09:33;;;;;;;77.97;50.70;;;11.50;91.80;;;;;;5067181;28;20451;-69
2022/03/23 05:11:58;;;;;;;82.43;51.83;;;11.50;91.70;;;;;;5088004;28;20497;-70
2022/03/23 05:14:24;;;;;;;79.10;51.97;;;11.40;91.80;;;;;;5085973;28;20497;-71
2022/03/23 05:16:49;;;;;;;81.18;50.65;;;11.40;91.90;;;;;;5053213;28;20429;-73
2022/03/23 05:19:15;;;;;;;79.83;50.87;;;11.40;92.00;;;;;;5085489;28;20439;-68
2022/03/23 05:21:41;;;;;;;81.13;52.23;;;11.40;91.90;;;;;;5088536;28;20418;-69
2022/03/23 05:24:06;;;;;;;88.72;52.33;;;11.30;91.80;;;;;;5086666;28;20445;-68
2022/03/23 05:26:32;;;;;;;81.57;52.27;;;11.30;91.70;;;;;;5069269;28;20901;-68
2022/03/23 05:28:58;;;;;;;81.07;52.35;;;11.30;91.80;;;;;;5066616;28;20432;-70
2022/03/23 05:31:23;;;;;;;82.87;51.77;;;11.30;91.90;;;;;;5087799;28;20408;-69
2022/03/23 05:33:49;;;;;;;80.30;51.75;;;11.20;91.80;;;;;;5066489;28;20442;-69
2022/03/23 05:36:16;;;;;;;81.20;50.63;;;11.20;91.90;;;;;;5070575;28;20466;-70
2022/03/23 05:38:42;;;;;;;80.32;51.95;;;11.20;92.10;;;;;;5087638;28;20772;-66
2022/03/23 05:41:08;;;;;;;81.53;51.30;;;11.20;92.20;;;;;;5066903;28;20512;-69
2022/03/23 05:43:34;;;;;;;85.20;51.72;;;11.20;92.30;;;;;;5086197;28;20412;-69
2022/03/23 05:45:59;;;;;;;82.00;51.55;;;11.20;92.10;;;;;;5068017;28;20416;-67
2022/03/23 05:48:25;;;;;;;82.22;51.70;;;11.10;92.10;;;;;;5085967;28;20837;-70
2022/03/23 05:50:51;;;;;;;81.35;52.85;;;11.10;92.20;;;;;;5083194;28;20417;-68
2022/03/23 05:53:16;;;;;;;80.53;51.35;;;11.10;92.40;;;;;;5085219;28;20513;-68
2022/03/23 05:55:42;;;;;;;79.63;51.27;;;11.10;92.30;;;;;;5061631;28;22368;-67
2022/03/23 05:58:09;;;;;;;81.82;51.63;;;11.10;92.30;;;;;;5064031;28;20424;-66
2022/03/23 06:00:35;;;;;;;90.22;52.25;;;11.10;92.20;;;;;;5079583;28;20413;-66
2022/03/23 06:03:00;;;;;;;84.10;51.45;;;11.10;92.20;;;;;;5086150;28;20518;-66
2022/03/23 06:05:26;;;;;;;86.03;50.97;;;11.10;91.90;;;;;;5062576;28;20413;-66
2022/03/23 06:07:52;;;;;;;89.40;51.70;;;11.10;91.90;;;;;;5084394;28;20397;-66
2022/03/23 06:10:18;;;;;;;87.57;51.13;;;11.10;91.80;;;;;;5080058;28;20895;-68
2022/03/23 06:12:43;;;;;;;92.43;52.70;;;11.10;91.80;;;;;;5076085;28;20919;-69
2022/03/23 06:15:11;;;;;;;83.37;51.40;;;11.10;91.80;;;;;;5084706;28;20413;-70
2022/03/23 06:17:37;;;;;;;90.28;53.55;;;11.10;91.70;;;;;;5085407;28;20398;-73
2022/03/23 06:20:05;;;;;;;95.82;58.55;;;11.10;92.00;;;;;;5068012;28;20417;-69
2022/03/23 06:22:31;;;;;;;89.75;56.15;;;11.10;92.80;;;;;;5080177;28;20913;-73
2022/03/23 06:24:56;;;;;;;85.23;55.60;;;11.10;92.90;;;;;;5085334;28;20419;-71
2022/03/23 06:27:22;;;;;;;86.88;54.95;;;11.10;92.90;;;;;;5081105;28;20425;-72
2022/03/23 06:29:48;;;;;;;87.82;54.22;;;11.10;93.10;;;;;;5080832;28;20440;-70
2022/03/23 06:32:14;;;;;;;110.37;59.97;;;11.10;93.10;;;;;;5069959;28;20402;-72
2022/03/23 06:34:40;;;;;;;103.05;56.88;;;11.10;93.10;;;;;;5083715;28;20419;-72
2022/03/23 06:37:06;;;;;;;92.77;56.97;;;11.20;93.20;;;;;;5083912;28;20969;-70
2022/03/23 06:39:32;;;;;;;93.65;56.35;;;11.20;93.30;;;;;;5085288;28;20884;-69
2022/03/23 06:41:58;;;;;;;84.85;54.33;;;11.20;93.60;;;;;;5086193;28;20425;-70
2022/03/23 06:44:24;;;;;;;91.45;54.75;;;11.30;93.60;;;;;;5062336;28;20413;-65
2022/03/23 06:46:50;;;;;;;85.80;53.87;;;11.30;93.60;;;;;;5066069;28;20789;-67
2022/03/23 06:49:16;;;;;;;82.00;53.08;;;11.40;94.00;;;;;;5085852;28;20412;-68
2022/03/23 06:51:42;;;;;;;93.00;55.10;;;11.40;93.80;;;;;;5068040;28;20477;-67
2022/03/23 06:54:08;;;;;;;90.00;54.40;;;11.50;93.80;;;;;;5083307;28;20436;-69
2022/03/23 06:56:33;;;;;;;91.83;56.07;;;11.50;94.30;;;;;;5067565;28;20421;-69
2022/03/23 06:58:59;;;;;;;88.78;57.05;;;11.60;94.20;;;;;;5076173;28;20456;-67
2022/03/23 07:01:25;;;;;;;89.87;57.03;;;11.60;94.10;;;;;;5082044;28;20399;-70
2022/03/23 07:03:50;;;;;;;91.33;56.13;;;11.70;94.30;;;;;;5066535;28;20463;-70
2022/03/23 07:06:16;;;;;;;92.95;56.97;;;11.70;94.20;;;;;;5087116;28;20405;-72
2022/03/23 07:11:30;;;;;;;89.77;56.80;;;11.80;94.20;;;;;;5085771;28;20450;-68
2022/03/23 07:13:57;;;;;;;92.57;55.35;;;11.90;94.20;;;;;;5051156;28;20406;-71
2022/03/23 07:16:23;;;;;;;88.28;55.22;;;12.00;94.20;;;;;;5087049;28;20497;-67
2022/03/23 07:18:49;;;;;;;86.82;53.50;;;12.00;94.20;;;;;;5082557;28;20890;-67
2022/03/23 07:21:14;;;;;;;89.68;52.97;;;12.10;93.90;;;;;;5083219;28;20459;-71
2022/03/23 07:23:40;;;;;;;89.28;54.20;;;12.10;93.50;;;;;;5068936;28;22106;-67
2022/03/23 07:26:07;;;;;;;86.50;52.00;;;12.20;93.60;;;;;;5086338;28;20440;-66
2022/03/23 07:28:32;;;;;;;84.93;50.08;;;12.30;93.60;;;;;;5066513;28;20766;-66
2022/03/23 07:30:59;;;;;;;81.20;50.88;;;12.40;93.50;;;;;;5069251;28;20404;-69
2022/03/23 07:33:25;;;;;;;82.43;49.72;;;12.40;93.20;;;;;;5086909;28;20551;-68
2022/03/23 07:35:51;;;;;;;78.80;48.50;;;12.50;93.30;;;;;;5084631;28;20423;-67
2022/03/23 07:38:17;;;;;;;83.20;48.95;;;12.60;93.00;;;;;;5087094;28;20413;-65
2022/03/23 07:40:43;;;;;;;83.68;48.45;;;12.60;93.20;;;;;;5069417;28;20404;-69
2022/03/23 07:43:09;;;;;;;78.63;46.23;;;12.70;93.00;;;;;;5088824;28;20414;-68
2022/03/23 07:45:35;;;;;;;74.38;45.83;;;12.80;92.60;;;;;;5090315;28;20451;-68
2022/03/23 07:48:00;;;;;;;70.53;44.00;;;12.90;92.40;;;;;;5090655;28;20426;-68
2022/03/23 07:50:27;;;;;;;74.93;43.78;;;13.00;92.40;;;;;;5072173;28;20413;-67
2022/03/23 07:52:54;;;;;;;74.95;45.38;;;13.10;92.20;;;;;;5088519;28;20496;-69
2022/03/23 07:55:20;;;;;;;77.07;44.58;;;13.10;92.10;;;;;;5089864;28;20409;-68
2022/03/23 07:57:46;;;;;;;75.53;43.67;;;13.20;92.20;;;;;;5090594;28;20882;-70
2022/03/23 08:00:13;;;;;;;61.15;36.92;;;13.30;91.60;;;;;;5088184;28;20413;-69
2022/03/23 08:02:40;;;;;;;68.07;40.75;;;13.40;91.10;;;;;;5055536;28;20482;-69
2022/03/23 08:05:07;;;;;;;66.03;41.10;;;13.50;91.40;;;;;;5072139;28;20926;-69
2022/03/23 08:07:33;;;;;;;62.55;37.78;;;13.60;91.00;;;;;;5069494;28;20463;-68
2022/03/23 08:09:59;;;;;;;73.27;41.70;;;13.70;90.50;;;;;;5089566;28;20413;-70
2022/03/23 08:12:25;;;;;;;59.97;38.07;;;13.70;90.30;;;;;;5085820;28;21382;-70
2022/03/23 08:14:50;;;;;;;67.28;40.75;;;13.90;90.40;;;;;;5086703;28;20402;-69
2022/03/23 08:17:16;;;;;;;65.07;39.77;;;14.00;90.20;;;;;;5067316;28;20409;-70
2022/03/23 08:19:42;;;;;;;64.53;37.40;;;14.10;89.50;;;;;;5089077;28;20500;-68
2022/03/23 08:22:09;;;;;;;65.17;39.53;;;14.30;88.90;;;;;;5087631;28;20398;-70
2022/03/23 08:24:34;;;;;;;59.47;36.13;;;14.30;88.30;;;;;;5086432;28;20432;-69
2022/03/23 08:27:00;;;;;;;60.03;37.65;;;14.50;87.40;;;;;;5067794;28;20395;-69
2022/03/23 08:29:26;;;;;;;56.33;36.93;;;14.60;86.80;;;;;;5071011;28;20414;-72
2022/03/23 08:31:52;;;;;;;61.00;38.00;;;14.70;86.70;;;;;;5086872;28;20409;-72
2022/03/23 08:34:18;;;;;;;68.55;38.17;;;14.80;86.40;;;;;;5087583;28;20555;-69
2022/03/23 08:36:44;;;;;;;75.03;40.37;;;15.00;86.40;;;;;;5088189;28;20422;-68
2022/03/23 08:39:10;;;;;;;59.50;38.15;;;15.10;86.60;;;;;;5066537;28;20429;-69
2022/03/23 08:41:36;;;;;;;64.70;37.88;;;15.20;86.90;;;;;;5083439;28;20432;-68
2022/03/23 08:44:02;;;;;;;66.25;39.20;;;15.30;86.00;;;;;;5086415;28;20421;-69
2022/03/23 08:46:28;;;;;;;68.13;35.83;;;15.40;86.00;;;;;;5089217;28;20190;-67
2022/03/23 08:48:54;;;;;;;59.53;33.10;;;15.10;86.80;;;;;;5087564;28;20174;-68
2022/03/23 08:51:19;;;;;;;55.42;29.52;;;14.80;87.00;;;;;;5087619;28;20197;-70
2022/03/23 08:53:45;;;;;;;56.40;31.52;;;14.70;87.50;;;;;;5087593;28;20247;-69
2022/03/23 08:56:11;;;;;;;63.88;33.13;;;14.60;87.80;;;;;;5088743;28;20670;-66
2022/03/23 08:58:47;;;;;;;71.88;32.75;;;14.50;87.90;;;;;;5089514;28;20173;-70
2022/03/23 09:01:15;;;;;;;59.80;31.83;;;14.50;87.60;;;;;;5089333;28;20190;-68
2022/03/23 09:03:42;;;;;;;59.78;33.25;;;14.50;87.20;;;;;;5087248;28;20556;-67
2022/03/23 09:06:09;;;;;;;59.72;31.60;;;14.60;87.10;;;;;;5090798;28;20202;-67
2022/03/23 09:08:34;;;;;;;55.95;31.02;;;14.80;86.80;;;;;;5085905;28;20202;-67
2022/03/23 09:11:00;;;;;;;57.15;30.30;;;14.90;85.80;;;;;;5072443;28;20186;-67
2022/03/23 09:13:26;;;;;;;55.33;30.23;;;15.00;84.80;;;;;;5070543;28;20190;-67
2022/03/23 09:15:51;;;;;;;56.53;30.48;;;15.20;84.60;;;;;;5085680;28;20202;-67
2022/03/23 09:18:17;;;;;;;64.65;31.25;;;15.30;83.80;;;;;;5070949;28;20558;-67
2022/03/23 09:20:43;;;;;;;55.38;30.77;;;15.50;82.60;;;;;;5090528;28;20642;-68
2022/03/23 09:23:09;;;;;;;58.78;34.97;;;15.60;81.70;;;;;;5071307;28;20270;-68
2022/03/23 09:25:34;;;;;;;58.70;30.65;;;15.80;81.50;;;;;;5086625;28;20190;-67
2022/03/23 09:28:01;;;;;;;64.07;33.10;;;15.90;80.80;;;;;;5090948;28;20170;-68
2022/03/23 09:30:26;;;;;;;48.25;26.13;;;16.10;79.70;;;;;;5088084;28;20182;-68
2022/03/23 09:32:52;;;;;;;39.60;23.00;;;16.20;78.10;;;;;;5090002;28;20661;-67
2022/03/23 09:35:18;;;;;;;39.90;21.55;;;16.30;76.50;;;;;;5070488;28;20213;-67
2022/03/23 09:37:47;;;;;;;39.67;20.55;;;16.50;74.70;;;;;;5089851;28;20188;-67
2022/03/23 09:40:24;;;;;;;33.10;19.17;;;16.70;73.10;;;;;;5085867;28;20264;-68
2022/03/23 09:42:51;;;;;;;36.70;20.50;;;16.80;72.00;;;;;;5084528;28;20246;-67
2022/03/23 09:45:46;;;;;;;36.17;20.13;;;16.90;70.60;;;;;;5088503;28;20203;-67
2022/03/23 09:48:13;;;;;;;27.95;18.65;;;17.00;70.40;;;;;;5085886;28;20186;-68
2022/03/23 09:50:41;;;;;;;32.97;19.75;;;17.20;68.20;;;;;;5090527;28;20575;-67
2022/03/23 09:53:07;;;;;;;32.78;18.95;;;17.30;66.50;;;;;;5052839;28;20669;-68
2022/03/23 09:55:33;;;;;;;35.15;18.55;;;17.50;66.00;;;;;;5071828;28;20255;-68
2022/03/23 09:58:00;;;;;;;30.83;17.30;;;17.50;64.60;;;;;;5084595;28;20634;-68
2022/03/23 10:00:32;;;;;;;28.02;17.85;;;17.60;63.50;;;;;;5088334;28;20208;-68
2022/03/23 10:02:57;;;;;;;33.45;18.80;;;17.80;63.60;;;;;;5071892;28;20235;-68
2022/03/23 10:06:00;;;;;;;30.70;17.67;;;17.90;62.70;;;;;;5086464;28;20182;-68
2022/03/23 10:08:47;;;;;;;26.88;16.58;;;18.10;62.20;;;;;;5086344;28;20198;-68
2022/03/23 10:11:37;;;;;;;32.05;17.45;;;18.20;62.10;;;;;;5070950;28;20193;-68
2022/03/23 10:14:30;;;;;;;26.88;16.13;;;18.40;60.30;;;;;;5069538;28;20537;-68
2022/03/23 10:17:35;;;;;;;31.10;15.85;;;18.50;60.20;;;;;;5087291;28;20210;-67
2022/03/23 10:20:02;;;;;;;28.23;16.70;;;18.60;59.50;;;;;;5086840;28;20290;-69
2022/03/23 10:22:28;;;;;;;33.72;16.00;;;18.80;58.50;;;;;;5064624;28;20219;-70
2022/03/23 10:24:54;;;;;;;30.60;15.68;;;18.80;57.40;;;;;;5068249;28;20615;-67
2022/03/23 10:27:23;;;;;;;26.33;14.18;;;18.80;57.00;;;;;;5069351;28;20685;-67
2022/03/23 10:29:52;;;;;;;31.70;16.17;;;18.80;58.80;;;;;;5064823;28;20186;-67
2022/03/23 10:32:21;;;;;;;26.48;15.30;;;18.70;58.70;;;;;;5066056;28;20198;-68
2022/03/23 10:34:54;;;;;;;34.72;16.48;;;18.70;58.10;;;;;;5063073;28;20407;-67
2022/03/23 10:37:25;;;;;;;28.05;15.23;;;19.30;54.10;;;;;;5068247;28;20399;-68
2022/03/23 10:39:52;;;;;;;31.17;14.50;;;19.70;53.50;;;;;;5065924;28;20428;-68
2022/03/23 10:42:20;;;;;;;29.70;13.77;;;19.90;52.80;;;;;;5063898;28;20891;-66
2022/03/23 10:44:47;;;;;;;25.27;13.27;;;20.10;54.20;;;;;;5064539;28;20248;-71
2022/03/23 10:47:28;;;;;;;25.95;12.57;;;19.90;54.80;;;;;;5061533;28;20248;-67
2022/03/23 10:49:54;;;;;;;26.73;12.65;;;19.70;53.50;;;;;;5062267;28;20178;-69
2022/03/23 10:52:21;;;;;;;27.83;13.27;;;19.70;56.10;;;;;;5066724;28;20647;-67
2022/03/23 10:54:58;;;;;;;30.63;13.13;;;19.70;56.70;;;;;;5061448;28;20186;-66
2022/03/23 10:57:58;;;;;;;39.70;13.80;;;19.90;53.80;;;;;;5058724;28;20397;-70
2022/03/23 11:00:27;;;;;;;31.58;13.48;;;20.80;54.60;;;;;;5058058;28;20413;-68
2022/03/23 11:02:53;;;;;;;33.00;13.82;;;21.50;48.00;;;;;;5062300;28;20447;-67
2022/03/23 11:05:31;;;;;;;30.53;13.00;;;22.00;42.80;;;;;;5059295;28;20420;-67
2022/03/23 11:08:09;;;;;;;29.60;13.30;;;22.40;42.50;;;;;;5060719;28;20423;-74
2022/03/23 11:16:44;;;;;;;34.85;14.75;;;24.20;40.20;;;;;;5065173;28;20927;-67
2022/03/23 11:19:12;;;;;;;;;;;24.90;38.70;;;;;;5061326;28;20421;-68
2022/03/23 11:21:57;;;;;;;;;;;25.50;36.30;;;;;;5081062;28;19908;-69
2022/03/23 11:24:23;;;;;;;;;;;26.20;37.50;;;;;;5068338;28;20015;-70
2022/03/23 11:26:49;;;;;;;;;;;26.70;36.40;;;;;;5065494;28;20007;-63
2022/03/23 11:29:15;;;;;;;;;;;27.20;36.10;;;;;;5045341;28;20437;-68
2022/03/23 11:31:41;;;;;;;;;;;27.60;35.40;;;;;;5070809;28;19959;-71
2022/03/23 11:34:09;;;;;;;;;;;27.90;33.30;;;;;;5063791;28;19934;-68
2022/03/23 11:36:35;;;;;;;;;;;28.20;34.50;;;;;;5066267;28;20315;-69
2022/03/23 11:39:01;;;;;;;;;;;28.50;31.40;;;;;;5063093;28;20381;-70
2022/03/23 11:41:27;;;;;;;;;;;28.70;32.50;;;;;;5063986;28;19909;-66
2022/03/23 11:43:52;;;;;;;;;;;29.10;35.50;;;;;;5066977;28;19916;-70
2022/03/23 11:46:22;;;;;;;;;;;29.30;32.10;;;;;;5066141;28;19966;-69
2022/03/23 11:48:54;;;;;;;;;;;29.50;29.60;;;;;;5067130;28;19912;-70
2022/03/23 11:51:38;;;;;;;;;;;29.70;29.40;;;;;;5067790;28;19916;-68
2022/03/23 11:54:10;;;;;;;;;;;29.90;31.30;;;;;;5064481;28;19931;-65
2022/03/23 11:56:36;;;;;;;;;;;30.20;29.80;;;;;;5064113;28;20376;-67
2022/03/23 11:59:24;;;;;;;;;;;30.70;29.20;;;;;;5069022;28;19999;-68
2022/03/23 12:01:50;;;;;;;;;;;31.20;29.80;;;;;;5067590;28;19934;-68
2022/03/23 12:04:18;;;;;;;;;;;31.80;28.90;;;;;;5070586;28;19963;-69
2022/03/23 12:06:44;;;;;;;;;;;32.20;30.20;;;;;;5071122;28;19999;-68
2022/03/23 12:09:29;;;;;;;;;;;32.50;29.50;;;;;;5071203;28;19916;-70
2022/03/23 12:11:55;;;;;;;33.70;10.63;;;32.80;27.80;;;;;;5064649;28;20418;-70
2022/03/23 12:14:21;;;;;;;28.20;10.80;;;33.10;29.20;;;;;;5069267;28;20461;-72
2022/03/23 12:16:50;;;;;;;;;;;33.30;27.80;;;;;;5068571;28;20419;-68
2022/03/23 12:19:22;;;;;;;;;;;33.50;26.00;;;;;;5066827;28;20358;-69
2022/03/23 12:22:01;;;;;;;;;;;33.50;30.00;;;;;;5069304;28;19980;-68
2022/03/23 12:24:41;;;;;;;;;;;33.40;25.40;;;;;;5069250;28;19924;-69
2022/03/23 12:27:09;;;;;;;;;;;33.40;28.80;;;;;;5077188;28;20013;-69
2022/03/23 12:29:38;;;;;;;;;;;33.20;28.70;;;;;;5069832;28;20000;-68
2022/03/23 12:32:06;;;;;;;;;;;33.10;28.30;;;;;;5067463;28;19938;-72
2022/03/23 12:34:32;;;;;;;;;;;32.90;29.10;;;;;;5067188;28;19912;-68
2022/03/23 12:37:08;;;;;;;;;;;32.70;28.10;;;;;;5068960;28;20408;-71
2022/03/23 12:39:47;;;;;;;;;;;32.30;25.10;;;;;;5069087;28;19915;-70
2022/03/23 12:42:12;;;;;;;;;;;32.10;29.60;;;;;;5071557;28;19957;-69
2022/03/23 12:44:38;;;;;;;;;;;32.00;26.30;;;;;;5069399;28;20284;-68
2022/03/23 12:47:04;;;;;;;;;;;31.90;29.40;;;;;;5071634;28;20361;-71
2022/03/23 12:58:05;;;;;;;;;;;31.60;25.20;;;;;;5069510;28;19908;-68
2022/03/23 13:00:32;;;;;;;;;;;31.70;25.10;;;;;;5070595;28;19909;-68
2022/03/23 13:03:07;;;;;;;;;;;31.90;24.40;;;;;;5068352;28;19916;-69
2022/03/23 13:05:33;;;;;;;;;;;32.10;24.70;;;;;;5069020;28;20357;-70
2022/03/23 13:07:58;;;;;;;;;;;32.10;21.70;;;;;;5070073;28;19912;-69
2022/03/23 13:10:27;;;;;;;;;;;32.00;22.60;;;;;;5066736;28;20015;-68